createdAt,value
2023-01-29T00:00:16.211Z,67.98
2023-01-29T00:05:27.142Z,67.21
2023-01-29T00:07:57.579Z,67.27
2023-01-29T00:10:25.560Z,67.59
2023-01-29T00:12:55.113Z,67.10
2023-01-29T00:15:22.257Z,67.55
2023-01-29T00:17:49.394Z,67.82
2023-01-29T00:20:21.975Z,67.57
2023-01-29T00:22:51.813Z,67.55
2023-01-29T00:25:21.220Z,67.76
2023-01-29T00:27:50.788Z,67.74
2023-01-29T00:30:24.534Z,67.47
2023-01-29T00:32:58.831Z,67.56
2023-01-29T00:35:26.064Z,67.35
2023-01-29T00:37:57.890Z,67.31
2023-01-29T00:40:52.146Z,67.20
2023-01-29T00:43:38.142Z,67.16
2023-01-29T00:46:06.646Z,68.02
2023-01-29T00:48:34.457Z,67.84
2023-01-29T00:51:02.954Z,68.19
2023-01-29T00:53:32.192Z,68.36
2023-01-29T00:55:59.473Z,67.75
2023-01-29T00:58:28.376Z,67.87
2023-01-29T01:00:56.158Z,67.38
2023-01-29T01:03:23.206Z,67.78
2023-01-29T01:08:35.580Z,67.35
2023-01-29T01:11:06.763Z,67.40
2023-01-29T01:13:34.958Z,67.46
2023-01-29T01:16:01.913Z,67.56
2023-01-29T01:18:33.995Z,67.47
2023-01-29T01:21:01.025Z,67.52
2023-01-29T01:23:27.894Z,67.41
2023-01-29T01:25:57.873Z,67.50
2023-01-29T01:28:24.983Z,66.98
2023-01-29T01:30:51.966Z,67.74
2023-01-29T01:33:41.597Z,67.11
2023-01-29T01:36:09.960Z,67.73
2023-01-29T01:38:44.739Z,67.27
2023-01-29T01:41:14.915Z,67.31
2023-01-29T01:44:03.254Z,67.32
2023-01-29T01:46:33.913Z,67.46
2023-01-29T01:49:19.027Z,68.05
2023-01-29T01:51:52.624Z,67.28
2023-01-29T01:54:24.946Z,68.29
2023-01-29T01:57:09.490Z,68.10
2023-01-29T01:59:39.093Z,67.89
2023-01-29T02:02:27.528Z,67.78
2023-01-29T02:05:17.262Z,67.24
2023-01-29T02:08:06.012Z,67.56
2023-01-29T02:10:42.520Z,68.25
2023-01-29T02:13:09.833Z,68.11
2023-01-29T02:15:37.551Z,68.34
2023-01-29T02:18:04.580Z,68.49
2023-01-29T02:20:33.998Z,67.96
2023-01-29T02:23:03.875Z,67.52
2023-01-29T02:28:25.740Z,68.04
2023-01-29T02:31:23.739Z,67.68
2023-01-29T02:34:06.590Z,67.73
2023-01-29T02:36:36.421Z,67.79
2023-01-29T02:39:28.321Z,67.56
2023-01-29T02:42:02.967Z,67.47
2023-01-29T02:45:00.552Z,67.50
2023-01-29T02:47:58.725Z,68.65
2023-01-29T02:51:03.672Z,68.05
2023-01-29T02:53:40.703Z,67.78
2023-01-29T02:56:14.694Z,67.86
2023-01-29T02:59:17.000Z,67.68
2023-01-29T03:01:53.323Z,67.65
2023-01-29T03:04:26.409Z,67.07
2023-01-29T03:07:02.636Z,67.30
2023-01-29T03:09:44.623Z,67.62
2023-01-29T03:12:29.159Z,67.40
2023-01-29T03:15:16.688Z,67.73
2023-01-29T03:18:14.814Z,67.90
2023-01-29T03:20:50.095Z,67.81
2023-01-29T03:23:45.139Z,67.61
2023-01-29T03:26:31.967Z,67.53
2023-01-29T03:29:21.913Z,67.55
2023-01-29T03:32:09.000Z,67.49
2023-01-29T03:34:43.735Z,67.45
2023-01-29T03:37:32.237Z,67.34
2023-01-29T03:39:59.299Z,67.20
2023-01-29T03:43:08.579Z,67.32
2023-01-29T03:48:29.162Z,67.69
2023-01-29T03:51:10.466Z,67.34
2023-01-29T03:53:48.324Z,67.20
2023-01-29T03:56:39.405Z,67.49
2023-01-29T04:02:15.929Z,67.56
2023-01-29T04:04:49.057Z,67.68
2023-01-29T04:07:28.268Z,67.81
2023-01-29T04:10:00.185Z,67.51
2023-01-29T04:12:36.375Z,67.54
2023-01-29T04:15:12.592Z,67.45
2023-01-29T04:20:13.671Z,67.19
2023-01-29T04:22:44.967Z,67.25
2023-01-29T04:25:19.132Z,67.56
2023-01-29T04:28:12.088Z,67.50
2023-01-29T04:31:00.609Z,67.76
2023-01-29T04:34:10.972Z,67.67
2023-01-29T04:36:55.876Z,67.41
2023-01-29T04:39:34.650Z,67.64
2023-01-29T04:42:34.297Z,67.24
2023-01-29T04:45:42.124Z,67.09
2023-01-29T04:48:37.769Z,67.60
2023-01-29T04:51:19.000Z,67.51
2023-01-29T04:54:13.051Z,67.32
2023-01-29T04:57:27.010Z,67.76
2023-01-29T05:00:02.754Z,67.67
2023-01-29T05:02:36.658Z,68.18
2023-01-29T05:05:06.286Z,68.05
2023-01-29T05:07:36.241Z,68.04
2023-01-29T05:10:09.146Z,67.97
2023-01-29T05:12:41.329Z,67.76
2023-01-29T05:15:18.668Z,67.88
2023-01-29T05:17:48.973Z,68.07
2023-01-29T05:20:17.738Z,67.82
2023-01-29T05:22:46.764Z,68.53
2023-01-29T05:25:26.596Z,67.55
2023-01-29T05:28:14.159Z,67.96
2023-01-29T05:30:40.872Z,68.20
2023-01-29T05:33:23.873Z,68.04
2023-01-29T05:35:51.285Z,67.51
2023-01-29T05:38:19.600Z,67.73
2023-01-29T05:40:46.616Z,67.84
2023-01-29T05:43:27.379Z,67.74
2023-01-29T05:45:58.056Z,67.57
2023-01-29T05:48:27.699Z,67.77
2023-01-29T05:50:59.736Z,67.80
2023-01-29T05:53:26.833Z,67.39
2023-01-29T05:55:59.212Z,67.47
2023-01-29T05:58:26.225Z,67.88
2023-01-29T06:03:33.526Z,67.97
2023-01-29T06:06:02.046Z,67.96
2023-01-29T06:08:28.635Z,68.16
2023-01-29T06:10:55.303Z,68.09
2023-01-29T06:13:23.632Z,68.79
2023-01-29T06:15:50.579Z,68.51
2023-01-29T06:18:17.300Z,68.22
2023-01-29T06:23:10.469Z,68.11
2023-01-29T06:25:37.099Z,68.51
2023-01-29T06:28:05.861Z,68.70
2023-01-29T06:30:34.805Z,68.58
2023-01-29T06:33:02.010Z,68.11
2023-01-29T06:35:29.936Z,68.15
2023-01-29T06:40:23.545Z,68.94
2023-01-29T06:45:16.961Z,68.84
2023-01-29T06:47:43.641Z,69.30
2023-01-29T06:50:11.231Z,69.16
2023-01-29T06:52:38.058Z,68.88
2023-01-29T06:55:05.161Z,68.81
2023-01-29T06:57:31.858Z,69.33
2023-01-29T06:59:58.644Z,68.98
2023-01-29T07:02:25.309Z,69.11
2023-01-29T07:07:18.622Z,68.74
2023-01-29T07:12:11.991Z,68.52
2023-01-29T07:14:38.676Z,68.69
2023-01-29T07:17:07.764Z,68.79
2023-01-29T07:22:03.343Z,68.53
2023-01-29T07:29:23.426Z,68.52
2023-01-29T07:34:24.112Z,67.46
2023-01-29T07:36:53.796Z,67.75
2023-01-29T07:39:22.831Z,66.69
2023-01-29T07:44:16.634Z,67.96
2023-01-29T07:46:43.752Z,68.01
2023-01-29T07:49:11.075Z,68.12
2023-01-29T07:51:37.739Z,68.11
2023-01-29T07:54:06.878Z,67.60
2023-01-29T07:56:33.839Z,67.63
2023-01-29T07:59:00.775Z,67.64
2023-01-29T08:01:27.641Z,67.57
2023-01-29T08:06:23.556Z,67.51
2023-01-29T08:08:50.658Z,67.96
2023-01-29T08:11:17.346Z,67.77
2023-01-29T08:13:44.145Z,68.03
2023-01-29T08:16:10.734Z,67.72
2023-01-29T08:18:38.178Z,67.66
2023-01-29T08:21:04.879Z,67.15
2023-01-29T08:23:31.738Z,67.36
2023-01-29T08:25:58.428Z,67.46
2023-01-29T08:28:25.214Z,66.87
2023-01-29T08:30:52.003Z,67.17
2023-01-29T08:33:26.346Z,66.82
2023-01-29T08:35:53.602Z,67.05
2023-01-29T08:38:20.708Z,66.18
2023-01-29T08:40:47.311Z,66.36
2023-01-29T08:43:14.428Z,66.16
2023-01-29T08:45:42.974Z,65.60
2023-01-29T08:48:10.520Z,65.89
2023-01-29T08:50:38.010Z,65.17
2023-01-29T08:53:09.485Z,66.28
2023-01-29T08:55:40.389Z,65.49
2023-01-29T08:58:10.141Z,66.32
2023-01-29T09:00:37.042Z,65.91
2023-01-29T09:03:04.135Z,65.67
2023-01-29T09:05:31.049Z,66.35
2023-01-29T09:10:25.072Z,65.64
2023-01-29T09:12:51.864Z,64.69
2023-01-29T09:15:18.889Z,65.09
2023-01-29T09:17:51.783Z,65.51
2023-01-29T09:20:19.587Z,65.50
2023-01-29T09:22:47.225Z,65.70
2023-01-29T09:25:14.472Z,66.23
2023-01-29T09:30:08.931Z,64.98
2023-01-29T09:35:23.802Z,64.14
2023-01-29T09:37:51.602Z,63.49
2023-01-29T09:40:26.921Z,63.56
2023-01-29T09:43:09.517Z,64.13
2023-01-29T09:45:38.981Z,64.81
2023-01-29T09:48:14.849Z,64.43
2023-01-29T09:50:46.603Z,63.94
2023-01-29T09:53:42.353Z,63.14
2023-01-29T09:58:43.402Z,63.70
2023-01-29T10:01:22.567Z,63.73
2023-01-29T10:03:55.359Z,63.36
2023-01-29T10:06:42.257Z,63.75
2023-01-29T10:09:36.311Z,63.79
2023-01-29T10:12:31.174Z,64.20
2023-01-29T10:15:19.309Z,64.66
2023-01-29T10:18:20.061Z,64.20
2023-01-29T10:20:56.490Z,63.92
2023-01-29T10:23:34.395Z,63.08
2023-01-29T10:28:43.328Z,63.50
2023-01-29T10:31:21.660Z,61.96
2023-01-29T10:34:02.470Z,62.01
2023-01-29T10:36:45.343Z,61.59
2023-01-29T10:39:23.457Z,62.19
2023-01-29T10:44:29.330Z,60.49
2023-01-29T10:47:30.564Z,60.11
2023-01-29T10:50:06.817Z,60.26
2023-01-29T10:52:54.181Z,59.79
2023-01-29T10:55:30.643Z,60.33
2023-01-29T10:58:27.892Z,60.11
2023-01-29T11:00:54.669Z,60.46
2023-01-29T11:03:28.863Z,60.94
2023-01-29T11:06:17.339Z,61.10
2023-01-29T11:08:57.917Z,61.36
2023-01-29T11:11:46.062Z,60.73
2023-01-29T11:14:20.882Z,60.41
2023-01-29T11:16:49.237Z,60.42
2023-01-29T11:19:16.556Z,61.53
2023-01-29T11:22:01.869Z,60.79
2023-01-29T11:24:29.008Z,60.44
2023-01-29T11:26:58.772Z,60.67
2023-01-29T11:29:38.325Z,61.00
2023-01-29T11:32:13.806Z,60.30
2023-01-29T11:35:05.288Z,60.36
2023-01-29T11:37:37.485Z,60.65
2023-01-29T11:40:21.486Z,60.72
2023-01-29T11:42:49.100Z,60.94
2023-01-29T11:45:33.874Z,60.59
2023-01-29T11:50:30.707Z,60.25
2023-01-29T11:53:00.028Z,61.20
2023-01-29T11:55:40.956Z,60.25
2023-01-29T11:58:29.195Z,60.52
2023-01-29T12:00:58.475Z,61.05
2023-01-29T12:03:36.909Z,61.19
2023-01-29T12:06:13.094Z,61.28
2023-01-29T12:08:42.512Z,60.68
2023-01-29T12:11:13.668Z,60.61
2023-01-29T12:13:45.763Z,59.68
2023-01-29T12:16:18.466Z,60.54
2023-01-29T12:18:53.924Z,60.29
2023-01-29T12:21:31.448Z,60.17
2023-01-29T12:24:04.316Z,59.98
2023-01-29T12:26:35.409Z,60.03
2023-01-29T12:29:48.998Z,61.30
2023-01-29T12:32:27.807Z,60.62
2023-01-29T12:34:57.493Z,60.51
2023-01-29T12:37:39.285Z,60.73
2023-01-29T12:40:18.254Z,60.27
2023-01-29T12:42:52.639Z,61.23
2023-01-29T12:45:22.773Z,60.74
2023-01-29T12:47:54.732Z,60.80
2023-01-29T12:50:30.565Z,60.16
2023-01-29T12:53:39.582Z,60.36
2023-01-29T12:56:13.155Z,60.20
2023-01-29T12:58:52.831Z,60.69
2023-01-29T13:01:44.815Z,60.15
2023-01-29T13:04:43.723Z,60.20
2023-01-29T13:10:10.335Z,59.46
2023-01-29T13:12:40.253Z,59.87
2023-01-29T13:15:21.819Z,61.19
2023-01-29T13:17:58.492Z,60.49
2023-01-29T13:20:35.682Z,60.99
2023-01-29T13:23:15.539Z,61.48
2023-01-29T13:25:45.186Z,61.45
2023-01-29T13:28:26.491Z,61.71
2023-01-29T13:31:21.451Z,61.49
2023-01-29T13:34:14.701Z,62.24
2023-01-29T13:36:49.028Z,62.41
2023-01-29T13:39:22.113Z,62.64
2023-01-29T13:41:52.437Z,62.03
2023-01-29T13:44:25.674Z,62.50
2023-01-29T13:47:20.451Z,62.49
2023-01-29T13:49:56.628Z,63.09
2023-01-29T13:52:33.687Z,62.94
2023-01-29T13:55:26.338Z,63.24
2023-01-29T13:57:58.768Z,63.27
2023-01-29T14:00:35.907Z,62.51
2023-01-29T14:03:08.620Z,62.95
2023-01-29T14:05:58.592Z,63.38
2023-01-29T14:08:34.568Z,63.29
2023-01-29T14:11:13.603Z,63.51
2023-01-29T14:13:44.630Z,63.37
2023-01-29T14:19:03.840Z,63.63
2023-01-29T14:21:37.824Z,63.46
2023-01-29T14:24:32.214Z,63.36
2023-01-29T14:29:41.946Z,63.73
2023-01-29T14:32:20.773Z,63.66
2023-01-29T14:34:47.883Z,63.44
2023-01-29T14:37:14.905Z,63.56
2023-01-29T14:42:53.600Z,64.06
2023-01-29T14:45:33.358Z,64.16
2023-01-29T14:50:41.989Z,64.40
2023-01-29T14:53:50.953Z,64.23
2023-01-29T14:56:33.741Z,64.30
2023-01-29T14:59:16.294Z,64.53
2023-01-29T15:04:54.064Z,65.07
2023-01-29T15:07:43.182Z,64.98
2023-01-29T15:10:23.489Z,65.48
2023-01-29T15:13:08.513Z,65.53
2023-01-29T15:15:49.685Z,65.23
2023-01-29T15:18:26.793Z,65.54
2023-01-29T15:23:42.170Z,65.74
2023-01-29T15:26:23.507Z,65.61
2023-01-29T15:29:04.629Z,65.80
2023-01-29T15:31:36.939Z,66.42
2023-01-29T15:34:07.690Z,66.17
2023-01-29T15:36:37.499Z,66.73
2023-01-29T15:39:19.693Z,66.47
2023-01-29T15:41:47.326Z,66.89
2023-01-29T15:44:23.403Z,66.97
2023-01-29T15:47:00.268Z,67.00
2023-01-29T15:49:35.676Z,67.66
2023-01-29T15:52:26.770Z,67.37
2023-01-29T15:55:09.199Z,67.66
2023-01-29T15:57:44.053Z,67.69
2023-01-29T16:00:28.739Z,67.73
2023-01-29T16:03:05.340Z,68.16
2023-01-29T16:05:37.649Z,68.14
2023-01-29T16:08:13.135Z,68.67
2023-01-29T16:10:45.760Z,68.82
2023-01-29T16:13:22.275Z,68.85
2023-01-29T16:16:19.131Z,69.03
2023-01-29T16:19:01.088Z,69.11
2023-01-29T16:21:38.448Z,69.59
2023-01-29T16:24:19.905Z,69.34
2023-01-29T16:26:53.522Z,69.88
2023-01-29T16:29:30.272Z,70.45
2023-01-29T16:32:06.071Z,69.77
2023-01-29T16:34:36.280Z,70.44
2023-01-29T16:39:50.278Z,70.78
2023-01-29T16:42:24.818Z,70.59
2023-01-29T16:45:03.742Z,70.44
2023-01-29T17:00:37.003Z,70.78
2023-01-29T17:03:19.912Z,71.38
2023-01-29T17:05:47.748Z,71.50
2023-01-29T17:08:29.564Z,71.44
2023-01-29T17:11:02.110Z,70.94
2023-01-29T17:13:38.507Z,71.64
2023-01-29T17:16:37.191Z,71.58
2023-01-29T17:19:18.540Z,71.96
2023-01-29T17:21:45.810Z,71.89
2023-01-29T17:24:12.661Z,72.00
2023-01-29T17:26:41.143Z,72.18
2023-01-29T17:29:17.275Z,72.93
2023-01-29T17:31:44.148Z,72.01
2023-01-29T17:36:44.081Z,72.57
2023-01-29T17:39:17.514Z,73.02
2023-01-29T17:41:47.594Z,72.78
2023-01-29T17:44:17.607Z,72.75
2023-01-29T17:46:44.669Z,73.04
2023-01-29T17:49:27.991Z,73.21
2023-01-29T17:51:57.158Z,73.32
2023-01-29T17:54:27.266Z,73.40
2023-01-29T17:56:57.440Z,72.87
2023-01-29T17:59:28.754Z,72.94
2023-01-29T18:01:55.737Z,73.52
2023-01-29T18:04:25.806Z,73.49
2023-01-29T18:06:53.453Z,74.25
2023-01-29T18:11:49.519Z,73.91
2023-01-29T18:14:18.790Z,74.18
2023-01-29T18:16:46.124Z,73.52
2023-01-29T18:19:30.299Z,73.41
2023-01-29T18:21:59.712Z,73.35
2023-01-29T18:24:32.415Z,73.54
2023-01-29T18:27:02.231Z,73.88
2023-01-29T18:29:37.562Z,74.52
2023-01-29T18:32:07.855Z,74.27
2023-01-29T18:34:34.705Z,74.09
2023-01-29T18:37:01.454Z,74.38
2023-01-29T18:39:32.882Z,74.37
2023-01-29T18:42:02.765Z,74.86
2023-01-29T18:44:29.817Z,74.58
2023-01-29T18:46:59.418Z,74.52
2023-01-29T18:49:26.279Z,74.67
2023-01-29T18:51:57.996Z,74.71
2023-01-29T18:54:27.703Z,74.78
2023-01-29T18:57:13.072Z,75.36
2023-01-29T18:59:44.195Z,75.22
2023-01-29T19:02:19.327Z,75.17
2023-01-29T19:04:50.576Z,75.44
2023-01-29T19:07:20.009Z,75.59
2023-01-29T19:09:47.119Z,75.83
2023-01-29T19:12:14.113Z,75.52
2023-01-29T19:17:16.904Z,75.86
2023-01-29T19:22:10.887Z,75.69
2023-01-29T19:27:07.905Z,76.29
2023-01-29T19:32:03.010Z,76.61
2023-01-29T19:34:30.007Z,76.33
2023-01-29T19:37:02.120Z,76.98
2023-01-29T19:39:33.859Z,76.92
2023-01-29T19:42:01.469Z,77.16
2023-01-29T19:44:30.491Z,77.16
2023-01-29T19:47:03.994Z,78.60
2023-01-29T19:49:32.284Z,78.21
2023-01-29T19:52:01.262Z,77.60
2023-01-29T19:54:29.606Z,77.13
2023-01-29T19:56:56.806Z,77.68
2023-01-29T19:59:23.698Z,77.65
2023-01-29T20:01:50.952Z,77.89
2023-01-29T20:04:18.352Z,78.01
2023-01-29T20:06:50.722Z,77.82
2023-01-29T20:09:20.129Z,77.90
2023-01-29T20:11:49.530Z,77.79
2023-01-29T20:14:16.582Z,78.44
2023-01-29T20:19:20.159Z,78.56
2023-01-29T20:24:17.418Z,77.99
2023-01-29T20:29:16.006Z,78.66
2023-01-29T20:36:36.745Z,79.21
2023-01-29T20:39:06.716Z,79.30
2023-01-29T20:48:54.627Z,79.10
2023-01-29T20:51:21.627Z,79.25
2023-01-29T20:53:54.693Z,78.67
2023-01-29T20:56:23.713Z,78.82
2023-01-29T20:59:05.484Z,78.86
2023-01-29T21:01:32.533Z,79.38
2023-01-29T21:04:01.954Z,79.29
2023-01-29T21:06:29.641Z,79.21
2023-01-29T21:09:00.509Z,79.55
2023-01-29T21:11:30.242Z,80.06
2023-01-29T21:13:59.546Z,79.87
2023-01-29T21:16:27.035Z,79.36
2023-01-29T21:19:07.493Z,79.71
2023-01-29T21:21:37.412Z,79.37
2023-01-29T21:24:04.463Z,79.12
2023-01-29T21:26:33.773Z,79.42
2023-01-29T21:29:03.250Z,80.40
2023-01-29T21:31:30.241Z,80.37
2023-01-29T21:33:57.026Z,80.06
2023-01-29T21:36:23.795Z,79.72
2023-01-29T21:38:50.699Z,80.69
2023-01-29T21:41:17.599Z,80.30
2023-01-29T21:43:47.179Z,80.85
2023-01-29T21:46:14.139Z,80.72
2023-01-29T21:51:08.626Z,80.64
2023-01-29T21:53:36.727Z,80.42
2023-01-29T21:56:06.188Z,80.87
2023-01-29T21:58:32.925Z,80.62
2023-01-29T22:01:35.162Z,80.91
2023-01-29T22:03:47.476Z,81.21
2023-01-29T22:06:17.117Z,80.97
2023-01-29T22:08:44.140Z,81.21
2023-01-29T22:11:10.952Z,81.51
2023-01-29T22:13:37.897Z,81.06
2023-01-29T22:16:06.100Z,81.54
2023-01-29T22:18:33.084Z,81.70
2023-01-29T22:21:02.628Z,82.82
2023-01-29T22:23:32.732Z,82.72
2023-01-29T22:26:04.134Z,82.00
2023-01-29T22:28:30.985Z,82.50
2023-01-29T22:31:05.942Z,82.29
2023-01-29T22:33:33.534Z,82.53
2023-01-29T22:36:00.733Z,81.84
2023-01-29T22:38:30.782Z,82.24
2023-01-29T22:40:59.894Z,81.92
2023-01-29T22:43:27.111Z,81.53
2023-01-29T22:45:56.865Z,81.94
2023-01-29T22:48:23.760Z,81.82
2023-01-29T22:51:09.427Z,82.74
2023-01-29T22:53:54.840Z,82.88
2023-01-29T22:56:27.063Z,82.93
2023-01-29T22:59:00.598Z,83.36
2023-01-29T23:01:30.391Z,82.71
2023-01-29T23:03:57.631Z,83.21
2023-01-29T23:06:25.277Z,82.78
2023-01-29T23:08:52.165Z,83.51
2023-01-29T23:11:20.832Z,83.87
2023-01-29T23:13:50.199Z,83.75
2023-01-29T23:16:20.280Z,83.93
2023-01-29T23:18:51.111Z,84.42
2023-01-29T23:21:18.092Z,84.55
2023-01-29T23:23:45.279Z,83.95
2023-01-29T23:26:31.053Z,84.00
2023-01-29T23:29:04.251Z,84.38
2023-01-29T23:31:32.002Z,83.68
2023-01-29T23:33:58.891Z,83.44
2023-01-29T23:36:33.201Z,84.40
2023-01-29T23:39:00.171Z,84.37
2023-01-29T23:41:27.076Z,84.16
2023-01-29T23:43:56.248Z,83.33
2023-01-29T23:46:23.662Z,84.05
2023-01-29T23:48:50.551Z,84.35
2023-01-29T23:51:17.405Z,84.16
2023-01-29T23:53:44.424Z,84.40
2023-01-29T23:56:11.409Z,84.23
2023-01-29T23:58:38.286Z,84.14
